Time;durP1;ratioP1;P1;durP2;ratioP2;P2;SDS_P1;SDS_P2;PMS_P1;PMS_P2;Temp;Humidity;BMP_temperature;BMP_pressure;BME280_temperature;BME280_humidity;BME280_pressure;Samples;Min_cycle;Max_cycle;Signal;HPM_P1;HPM_P2
2021/01/04 00:00:45;;;;;;;1.85;0.93;;;5.60;99.90;;;;;;6146215;23;20102;-83
2021/01/04 00:03:40;;;;;;;2.57;1.20;;;5.60;99.90;;;;;;6149452;23;20445;-83
2021/01/04 00:06:08;;;;;;;1.15;0.93;;;5.50;99.90;;;;;;6149060;23;20243;-82
2021/01/04 00:09:00;;;;;;;1.55;1.05;;;5.50;99.90;;;;;;6148497;23;20497;-82
2021/01/04 00:11:30;;;;;;;3.97;1.23;;;5.50;99.90;;;;;;6147685;23;20093;-85
2021/01/04 00:14:13;;;;;;;2.53;1.20;;;5.50;99.90;;;;;;6149351;23;20161;-85
2021/01/04 00:16:45;;;;;;;1.75;1.30;;;5.50;99.90;;;;;;6149179;23;20052;-84
2021/01/04 00:19:38;;;;;;;1.75;0.85;;;5.60;99.90;;;;;;6149581;23;20012;-82
2021/01/04 00:22:16;;;;;;;1.98;1.27;;;5.50;99.90;;;;;;6147332;23;20019;-83
2021/01/04 00:25:00;;;;;;;3.25;1.38;;;5.50;99.90;;;;;;6147401;23;20100;-82
2021/01/04 00:27:46;;;;;;;1.48;0.77;;;5.50;99.90;;;;;;6146308;23;20089;-82
2021/01/04 00:30:55;;;;;;;1.40;1.13;;;5.50;99.90;;;;;;6147629;23;20002;-83
2021/01/04 00:33:26;;;;;;;1.55;1.10;;;5.50;99.90;;;;;;6146613;23;20005;-87
2021/01/04 00:35:56;;;;;;;1.13;1.02;;;5.40;99.90;;;;;;6148011;23;20133;-84
2021/01/04 00:38:25;;;;;;;4.15;1.00;;;5.40;99.90;;;;;;6149340;23;20513;-79
2021/01/04 00:41:20;;;;;;;4.40;1.00;;;5.40;99.90;;;;;;6151053;23;20002;-80
2021/01/04 00:43:55;;;;;;;2.72;0.98;;;5.40;99.90;;;;;;6153690;23;20005;-80
2021/01/04 00:46:40;;;;;;;2.20;0.82;;;5.40;99.90;;;;;;6154100;23;20512;-81
2021/01/04 00:49:14;;;;;;;2.97;1.10;;;5.40;99.90;;;;;;6155731;23;20005;-81
2021/01/04 00:51:56;;;;;;;2.08;1.10;;;5.40;99.90;;;;;;6155543;23;20002;-82
2021/01/04 00:54:57;;;;;;;4.10;1.00;;;5.40;99.90;;;;;;6168378;23;20024;-85
2021/01/04 00:57:56;;;;;;;2.55;0.70;;;5.40;99.90;;;;;;6065647;23;20443;-87
2021/01/04 01:00:27;;;;;;;2.92;0.75;;;5.40;99.90;;;;;;6158907;23;20009;-85
2021/01/04 01:03:12;;;;;;;1.83;1.00;;;5.40;99.90;;;;;;6158932;23;20005;-83
2021/01/04 01:06:02;;;;;;;9.13;1.05;;;5.40;99.90;;;;;;6185194;23;20009;-80
2021/01/04 01:08:35;;;;;;;1.70;1.20;;;5.40;99.90;;;;;;6185025;23;20001;-80
2021/01/04 01:11:19;;;;;;;4.38;1.10;;;5.40;99.90;;;;;;6158570;23;20087;-80
2021/01/04 01:13:51;;;;;;;2.17;1.27;;;5.40;99.90;;;;;;6184955;23;20024;-80
2021/01/04 01:16:26;;;;;;;0.75;0.75;;;5.40;99.90;;;;;;6158849;23;20329;-80
2021/01/04 01:19:05;;;;;;;1.20;0.80;;;5.30;99.90;;;;;;6158781;23;20079;-80
2021/01/04 01:21:31;;;;;;;1.00;0.80;;;5.30;99.90;;;;;;6185122;23;19997;-80
2021/01/04 01:23:59;;;;;;;3.50;0.85;;;5.40;99.90;;;;;;6158578;23;20005;-80
2021/01/04 01:26:49;;;;;;;5.95;1.60;;;5.40;99.90;;;;;;6158699;23;20092;-80
2021/01/04 01:29:40;;;;;;;9.32;2.72;;;5.40;99.90;;;;;;6158827;23;20005;-80
2021/01/04 01:32:43;;;;;;;4.85;2.20;;;5.40;99.90;;;;;;6184689;23;20454;-80
2021/01/04 01:35:12;;;;;;;6.07;2.08;;;5.40;99.90;;;;;;6158461;23;20273;-80
2021/01/04 01:37:43;;;;;;;2.92;1.10;;;5.40;99.90;;;;;;6184855;23;20453;-80
2021/01/04 01:40:39;;;;;;;5.05;1.35;;;5.40;99.90;;;;;;6158579;23;20048;-80
2021/01/04 01:43:23;;;;;;;2.75;1.13;;;5.50;99.90;;;;;;6158203;23;20008;-80
2021/01/04 01:46:15;;;;;;;3.30;0.88;;;5.50;99.90;;;;;;6158221;23;20048;-80
2021/01/04 01:49:07;;;;;;;5.38;1.38;;;5.60;99.90;;;;;;6158440;23;20028;-80
2021/01/04 01:51:41;;;;;;;4.00;1.27;;;5.50;99.90;;;;;;6184699;23;20008;-80
2021/01/04 01:54:33;;;;;;;4.88;1.27;;;5.60;99.90;;;;;;6184332;23;20445;-80
2021/01/04 01:57:27;;;;;;;3.63;1.88;;;5.50;99.90;;;;;;6184808;23;20008;-80
2021/01/04 02:00:07;;;;;;;6.50;2.58;;;5.50;99.90;;;;;;6161960;23;20059;-80
2021/01/04 02:02:54;;;;;;;5.72;2.17;;;5.60;99.90;;;;;;6184287;23;20005;-80
2021/01/04 02:05:56;;;;;;;2.75;1.90;;;5.70;99.90;;;;;;6157954;23;20053;-80
2021/01/04 02:08:30;;;;;;;3.33;1.95;;;5.70;99.90;;;;;;6184497;23;20005;-80
2021/01/04 02:11:05;;;;;;;7.30;3.72;;;5.80;99.90;;;;;;6184510;23;20460;-80
2021/01/04 02:13:46;;;;;;;4.00;2.22;;;5.70;99.90;;;;;;6184444;23;20056;-80
2021/01/04 02:16:18;;;;;;;5.95;2.78;;;5.80;99.90;;;;;;6158053;23;20087;-80
2021/01/04 02:19:16;;;;;;;7.10;2.92;;;5.80;99.90;;;;;;6184503;23;20009;-80
2021/01/04 02:22:09;;;;;;;3.92;2.28;;;5.80;99.90;;;;;;6158426;23;20033;-80
2021/01/04 02:24:34;;;;;;;2.08;1.58;;;5.80;99.90;;;;;;6157281;23;20015;-80
2021/01/04 02:27:10;;;;;;;5.80;3.55;;;5.90;99.90;;;;;;6184310;23;20029;-80
2021/01/04 02:29:35;;;;;;;6.60;1.90;;;5.90;99.90;;;;;;6157917;23;19997;-80
2021/01/04 02:32:05;;;;;;;4.10;1.40;;;5.90;99.90;;;;;;6157568;23;20084;-80
2021/01/04 02:34:44;;;;;;;2.97;1.20;;;5.80;99.90;;;;;;6157735;23;20013;-80
2021/01/04 02:37:12;;;;;;;5.45;1.10;;;5.80;99.90;;;;;;6158970;23;20005;-80
2021/01/04 02:39:59;;;;;;;4.65;1.75;;;5.80;99.90;;;;;;6185660;23;20028;-80
2021/01/04 02:42:36;;;;;;;1.75;1.50;;;5.80;99.90;;;;;;6185577;23;20016;-80
2021/01/04 02:45:11;;;;;;;3.42;1.30;;;5.90;99.90;;;;;;6158883;23;20036;-80
2021/01/04 02:48:15;;;;;;;7.90;2.80;;;5.80;99.90;;;;;;6159316;23;20043;-80
2021/01/04 02:50:52;;;;;;;4.57;1.90;;;5.80;99.90;;;;;;6159320;23;20012;-80
2021/01/04 02:53:24;;;;;;;3.83;1.95;;;5.80;99.90;;;;;;6158376;23;20005;-80
2021/01/04 02:56:10;;;;;;;3.42;1.38;;;5.90;99.90;;;;;;6158024;23;20020;-80
2021/01/04 02:58:53;;;;;;;10.18;2.90;;;5.90;99.90;;;;;;6157894;23;20051;-80
2021/01/04 03:01:29;;;;;;;3.53;1.50;;;5.90;99.90;;;;;;6157974;23;20008;-80
2021/01/04 03:03:55;;;;;;;5.20;2.08;;;5.80;99.90;;;;;;6157516;23;20087;-80
2021/01/04 03:06:41;;;;;;;1.52;1.08;;;5.90;99.90;;;;;;6184105;23;20008;-80
2021/01/04 03:09:09;;;;;;;1.05;0.93;;;6.00;99.90;;;;;;6157555;23;20008;-80
2021/01/04 03:11:36;;;;;;;2.60;1.33;;;5.90;99.90;;;;;;6184065;23;19997;-80
2021/01/04 03:14:12;;;;;;;1.48;1.20;;;5.90;99.90;;;;;;6157520;23;20338;-80
2021/01/04 03:17:13;;;;;;;4.20;1.20;;;5.90;99.90;;;;;;6157681;23;20005;-80
2021/01/04 03:19:41;;;;;;;4.50;1.02;;;5.90;99.90;;;;;;6104918;23;20009;-80
2021/01/04 03:22:12;;;;;;;2.90;1.13;;;5.90;99.90;;;;;;6157658;23;20087;-80
2021/01/04 03:24:38;;;;;;;3.10;0.88;;;5.90;99.90;;;;;;6157491;23;20092;-80
2021/01/04 03:27:09;;;;;;;1.00;0.90;;;6.00;99.90;;;;;;6157774;23;20009;-80
2021/01/04 03:29:35;;;;;;;2.63;1.33;;;5.90;99.90;;;;;;6183833;23;19997;-80
2021/01/04 03:32:01;;;;;;;0.90;0.90;;;5.90;99.90;;;;;;6157540;23;20055;-80
2021/01/04 03:34:29;;;;;;;2.60;1.05;;;6.00;99.90;;;;;;6183593;23;20453;-80
2021/01/04 03:36:55;;;;;;;2.30;1.20;;;5.90;99.90;;;;;;6157443;23;20013;-80
2021/01/04 03:39:28;;;;;;;1.20;1.00;;;6.00;99.90;;;;;;6183673;23;20043;-80
2021/01/04 03:41:56;;;;;;;3.05;1.17;;;6.00;99.90;;;;;;6157174;23;20009;-80
2021/01/04 03:44:27;;;;;;;1.67;1.20;;;5.90;99.90;;;;;;6183717;23;20004;-80
2021/01/04 03:46:53;;;;;;;3.22;1.08;;;6.00;99.90;;;;;;6183872;23;19997;-80
2021/01/04 03:49:20;;;;;;;4.50;1.25;;;6.00;99.90;;;;;;6157447;23;20436;-80
2021/01/04 03:51:54;;;;;;;1.70;1.08;;;6.00;99.90;;;;;;6183558;23;19997;-80
2021/01/04 03:54:20;;;;;;;4.90;1.67;;;6.00;99.90;;;;;;6157083;23;20059;-80
2021/01/04 03:56:46;;;;;;;1.77;1.08;;;6.00;99.90;;;;;;6183647;23;20091;-80
2021/01/04 03:59:13;;;;;;;1.77;0.90;;;6.00;99.90;;;;;;6183765;23;20448;-80
2021/01/04 04:01:39;;;;;;;1.40;0.90;;;6.00;99.90;;;;;;6183795;23;20005;-80
2021/01/04 04:04:04;;;;;;;3.30;1.25;;;6.00;99.90;;;;;;6156990;23;20340;-80
2021/01/04 04:06:30;;;;;;;2.63;1.13;;;6.00;99.90;;;;;;6157278;23;20409;-80
2021/01/04 04:08:56;;;;;;;2.17;1.20;;;5.90;99.90;;;;;;6157202;23;20001;-80
2021/01/04 04:11:24;;;;;;;0.80;0.75;;;6.00;99.90;;;;;;6157316;23;20013;-80
2021/01/04 04:13:50;;;;;;;2.17;1.00;;;6.00;99.90;;;;;;6157153;23;20625;-80
2021/01/04 04:16:15;;;;;;;3.25;1.20;;;6.00;99.90;;;;;;6183715;23;20001;-80
2021/01/04 04:18:41;;;;;;;2.40;0.85;;;6.00;99.90;;;;;;6183485;23;20009;-80
2021/01/04 04:21:07;;;;;;;2.75;0.90;;;6.00;99.90;;;;;;6157261;23;20020;-80
2021/01/04 04:23:32;;;;;;;2.38;1.00;;;6.10;99.90;;;;;;6183333;23;20009;-80
2021/01/04 04:25:58;;;;;;;1.77;1.00;;;6.10;99.90;;;;;;6157172;23;20369;-80
2021/01/04 04:28:23;;;;;;;2.60;1.75;;;6.10;99.90;;;;;;6157127;23;20012;-80
2021/01/04 04:30:49;;;;;;;3.13;1.83;;;6.10;99.90;;;;;;6183426;23;20012;-80
2021/01/04 04:33:15;;;;;;;10.40;2.67;;;6.10;99.90;;;;;;6157288;23;20005;-80
2021/01/04 04:35:40;;;;;;;4.90;1.20;;;6.10;99.90;;;;;;6157057;23;20005;-80
2021/01/04 04:38:06;;;;;;;2.60;1.05;;;6.00;99.90;;;;;;6157073;23;20029;-80
2021/01/04 04:40:34;;;;;;;3.15;1.00;;;6.00;99.90;;;;;;6157102;23;20001;-80
2021/01/04 04:43:11;;;;;;;1.88;1.23;;;6.00;99.90;;;;;;6156928;23;20001;-80
2021/01/04 04:45:39;;;;;;;2.58;1.73;;;5.90;99.90;;;;;;6183409;23;20380;-80
2021/01/04 04:48:26;;;;;;;5.03;1.42;;;6.00;99.90;;;;;;6158511;23;20005;-80
2021/01/04 04:50:59;;;;;;;3.17;1.55;;;6.00;99.90;;;;;;6159006;23;20028;-80
2021/01/04 04:53:24;;;;;;;2.28;0.90;;;6.00;99.90;;;;;;6184882;23;20001;-80
2021/01/04 04:56:11;;;;;;;2.67;1.15;;;6.00;99.90;;;;;;6185016;23;20146;-80
2021/01/04 04:59:01;;;;;;;4.07;1.48;;;6.00;99.90;;;;;;6185056;23;20005;-80
2021/01/04 05:01:41;;;;;;;6.93;2.30;;;6.10;99.90;;;;;;6158651;23;20001;-80
2021/01/04 05:04:31;;;;;;;4.00;1.70;;;6.00;99.90;;;;;;6158545;23;20009;-80
2021/01/04 05:07:20;;;;;;;2.50;1.55;;;6.10;99.90;;;;;;6185015;23;20008;-80
2021/01/04 05:09:58;;;;;;;1.40;1.30;;;6.10;99.90;;;;;;6157549;23;20001;-80
2021/01/04 05:12:35;;;;;;;2.97;1.80;;;6.10;99.90;;;;;;6158371;23;20333;-80
2021/01/04 05:15:24;;;;;;;7.03;1.42;;;6.10;99.90;;;;;;6185168;23;20031;-80
2021/01/04 05:18:40;;;;;;;3.08;1.30;;;6.10;99.90;;;;;;6184980;23;20529;-80
2021/01/04 05:21:11;;;;;;;2.05;1.52;;;6.30;99.90;;;;;;6158474;23;20012;-80
2021/01/04 05:23:43;;;;;;;4.38;1.30;;;6.30;99.90;;;;;;6158352;23;20037;-80
2021/01/04 05:26:50;;;;;;;5.55;2.20;;;6.30;99.90;;;;;;6184813;23;20008;-80
2021/01/04 05:29:37;;;;;;;1.60;1.00;;;6.30;99.90;;;;;;6144526;23;20001;-80
2021/01/04 05:32:28;;;;;;;3.80;1.35;;;6.30;99.90;;;;;;6184842;23;20429;-80
2021/01/04 05:35:00;;;;;;;3.13;2.45;;;6.30;99.90;;;;;;6158324;23;20012;-80
2021/01/04 05:37:36;;;;;;;5.18;1.27;;;6.30;99.90;;;;;;6184502;23;20005;-80
2021/01/04 05:40:14;;;;;;;3.58;1.38;;;6.30;99.90;;;;;;6158304;23;20063;-80
2021/01/04 05:43:24;;;;;;;3.35;1.27;;;6.30;99.90;;;;;;6184721;23;20376;-80
2021/01/04 05:46:13;;;;;;;1.90;0.98;;;6.30;99.90;;;;;;6138645;23;20016;-80
2021/01/04 05:48:48;;;;;;;5.95;1.40;;;6.40;99.90;;;;;;6184536;23;20456;-80
2021/01/04 05:51:35;;;;;;;2.08;1.30;;;6.40;99.90;;;;;;6184912;23;20005;-80
2021/01/04 05:54:01;;;;;;;1.05;1.05;;;6.40;99.90;;;;;;6184429;23;20005;-80
2021/01/04 05:56:29;;;;;;;2.20;1.20;;;6.40;99.90;;;;;;6184721;23;20024;-80
2021/01/04 05:59:10;;;;;;;4.35;1.25;;;6.40;99.90;;;;;;6158163;23;20519;-80
2021/01/04 06:01:38;;;;;;;1.75;1.13;;;6.50;99.90;;;;;;6184385;23;20001;-80
2021/01/04 06:04:08;;;;;;;3.05;1.35;;;6.50;99.90;;;;;;6157995;23;20357;-80
2021/01/04 06:06:49;;;;;;;3.10;1.27;;;6.50;99.90;;;;;;6184449;23;20001;-80
2021/01/04 06:09:17;;;;;;;2.47;1.17;;;6.50;99.90;;;;;;6157921;23;20005;-80
2021/01/04 06:11:58;;;;;;;4.75;1.60;;;6.50;99.90;;;;;;6157908;23;20329;-80
2021/01/04 06:14:35;;;;;;;2.00;1.35;;;6.50;99.90;;;;;;6157940;23;20016;-80
2021/01/04 06:17:06;;;;;;;3.15;1.40;;;6.50;99.90;;;;;;6184527;23;20005;-80
2021/01/04 06:19:36;;;;;;;3.50;1.15;;;6.50;99.90;;;;;;6157979;23;20044;-80
2021/01/04 06:22:12;;;;;;;4.05;1.63;;;6.50;99.90;;;;;;6157785;23;20005;-80
2021/01/04 06:24:40;;;;;;;1.40;1.30;;;6.50;99.90;;;;;;6184146;23;20012;-80
2021/01/04 06:27:14;;;;;;;4.13;1.35;;;6.40;99.90;;;;;;6157947;23;20005;-80
2021/01/04 06:29:49;;;;;;;2.88;2.55;;;6.30;99.90;;;;;;6184281;23;20001;-80
2021/01/04 06:32:29;;;;;;;3.45;2.20;;;6.30;99.90;;;;;;6183911;23;20001;-80
2021/01/04 06:34:59;;;;;;;4.20;2.85;;;6.30;99.90;;;;;;6157435;23;20095;-80
2021/01/04 06:37:28;;;;;;;3.10;2.20;;;6.30;99.90;;;;;;6184127;23;20068;-80
2021/01/04 06:40:09;;;;;;;5.63;2.65;;;6.30;99.90;;;;;;6184115;23;20084;-80
2021/01/04 06:42:44;;;;;;;5.57;2.65;;;6.30;99.90;;;;;;6183770;23;20001;-80
2021/01/04 06:45:31;;;;;;;2.38;2.08;;;6.30;99.90;;;;;;6157445;23;20004;-80
2021/01/04 06:48:24;;;;;;;2.72;1.70;;;6.30;99.90;;;;;;6157463;23;20005;-80
2021/01/04 06:51:10;;;;;;;3.75;1.45;;;6.30;99.90;;;;;;6157497;23;20381;-80
2021/01/04 06:54:05;;;;;;;1.95;1.60;;;6.30;99.90;;;;;;6183582;23;20028;-80
2021/01/04 06:56:52;;;;;;;1.50;1.40;;;6.30;99.90;;;;;;6157831;23;20383;-80
2021/01/04 06:59:30;;;;;;;3.20;1.40;;;6.30;99.90;;;;;;6157627;23;20008;-80
2021/01/04 07:02:16;;;;;;;1.95;1.40;;;6.30;99.90;;;;;;6157341;23;20398;-80
2021/01/04 07:05:19;;;;;;;2.33;2.00;;;6.40;99.90;;;;;;6157343;23;20045;-80
2021/01/04 07:07:56;;;;;;;1.65;1.38;;;6.30;99.90;;;;;;6183451;23;19997;-80
2021/01/04 07:10:55;;;;;;;1.92;1.60;;;6.30;99.90;;;;;;6183693;23;19989;-80
2021/01/04 07:13:36;;;;;;;2.35;1.70;;;6.30;99.90;;;;;;6157069;23;20005;-80
2021/01/04 07:16:12;;;;;;;4.45;1.88;;;6.30;99.90;;;;;;6157323;23;20425;-80
2021/01/04 07:18:43;;;;;;;2.22;2.03;;;6.30;99.90;;;;;;6183773;23;19997;-80
2021/01/04 07:21:27;;;;;;;1.60;1.50;;;6.30;99.90;;;;;;6156744;23;20005;-80
2021/01/04 07:24:14;;;;;;;3.10;1.60;;;6.30;99.90;;;;;;6157339;23;20012;-79
2021/01/04 07:27:04;;;;;;;1.58;1.48;;;6.30;99.90;;;;;;6157062;23;20504;-80
2021/01/04 07:29:58;;;;;;;2.55;1.55;;;6.30;99.90;;;;;;6157011;23;20001;-80
2021/01/04 07:32:48;;;;;;;2.63;1.27;;;6.40;99.90;;;;;;6156938;23;20256;-80
2021/01/04 07:35:20;;;;;;;3.00;1.35;;;6.40;99.90;;;;;;6183959;23;20005;-80
2021/01/04 07:38:00;;;;;;;3.40;1.23;;;6.40;99.90;;;;;;6157387;23;20008;-81
2021/01/04 07:40:44;;;;;;;1.60;1.50;;;6.40;99.90;;;;;;6157364;23;20341;-80
2021/01/04 07:43:38;;;;;;;2.40;1.77;;;6.40;99.90;;;;;;6183489;23;20001;-80
2021/01/04 07:46:55;;;;;;;1.77;1.30;;;6.40;99.90;;;;;;6157410;23;21602;-80
2021/01/04 07:49:35;;;;;;;4.85;1.80;;;6.40;99.90;;;;;;6113418;23;20028;-80
2021/01/04 07:52:32;;;;;;;3.03;1.50;;;6.50;99.90;;;;;;6178865;23;20008;-80
2021/01/04 07:55:31;;;;;;;3.78;1.60;;;6.50;99.90;;;;;;6152615;23;20488;-80
2021/01/04 07:58:24;;;;;;;1.50;1.40;;;6.50;99.90;;;;;;6179808;23;20388;-80
2021/01/04 08:01:03;;;;;;;3.05;1.55;;;6.50;99.90;;;;;;6175135;23;20001;-81
2021/01/04 08:03:57;;;;;;;2.22;1.63;;;6.50;99.90;;;;;;6156248;23;20005;-78
2021/01/04 08:06:59;;;;;;;2.53;1.20;;;6.60;99.90;;;;;;6184533;23;20012;-78
2021/01/04 08:10:10;;;;;;;2.00;1.77;;;6.60;99.90;;;;;;6184595;23;20643;-78
2021/01/04 08:12:43;;;;;;;4.03;2.63;;;6.60;99.90;;;;;;6153527;23;20043;-79
2021/01/04 08:15:20;;;;;;;8.48;3.72;;;6.60;99.90;;;;;;6158172;23;20322;-78
2021/01/04 08:18:02;;;;;;;5.90;4.55;;;6.60;99.90;;;;;;6158602;23;20047;-79
2021/01/04 08:20:29;;;;;;;6.03;4.47;;;6.50;99.90;;;;;;6158252;23;20009;-79
2021/01/04 08:23:16;;;;;;;7.18;5.25;;;6.50;99.90;;;;;;6160530;23;20318;-78
2021/01/04 08:25:57;;;;;;;9.07;6.30;;;6.50;99.90;;;;;;6160636;23;20009;-78
2021/01/04 08:28:52;;;;;;;12.32;6.15;;;6.50;99.90;;;;;;6186962;23;20052;-78
2021/01/04 08:31:58;;;;;;;14.07;7.78;;;6.50;99.90;;;;;;6155688;23;20005;-79
2021/01/04 08:34:24;;;;;;;15.50;7.20;;;6.50;99.90;;;;;;6036858;23;20045;-78
2021/01/04 08:36:59;;;;;;;9.88;6.50;;;6.50;99.90;;;;;;6064039;23;20342;-78
2021/01/04 08:39:25;;;;;;;10.45;6.40;;;6.50;99.90;;;;;;6126861;23;20001;-78
2021/01/04 08:42:16;;;;;;;12.57;5.90;;;6.50;99.90;;;;;;6184241;23;20011;-79
2021/01/04 08:44:54;;;;;;;9.45;5.47;;;6.50;99.90;;;;;;6155030;23;20009;-79
2021/01/04 08:47:35;;;;;;;9.73;4.60;;;6.50;99.90;;;;;;6157102;23;20451;-79
2021/01/04 08:50:08;;;;;;;13.68;6.13;;;6.50;99.90;;;;;;6155476;23;20017;-78
2021/01/04 08:52:49;;;;;;;9.75;5.57;;;6.50;99.90;;;;;;6154815;23;20096;-79
2021/01/04 08:55:24;;;;;;;11.50;5.10;;;6.60;99.90;;;;;;6155646;23;20021;-81
2021/01/04 08:57:51;;;;;;;11.00;3.30;;;6.70;99.90;;;;;;6156365;23;20005;-78
2021/01/04 09:00:21;;;;;;;8.10;4.45;;;7.40;99.90;;;;;;6155409;23;20005;-77
2021/01/04 09:02:47;;;;;;;4.50;4.10;;;7.50;99.90;;;;;;6153980;23;20060;-77
2021/01/04 09:05:26;;;;;;;6.13;4.80;;;7.30;99.90;;;;;;6182028;23;20452;-76
2021/01/04 09:07:56;;;;;;;6.85;4.70;;;7.30;99.90;;;;;;6182638;23;20095;-77
2021/01/04 09:10:43;;;;;;;6.80;5.00;;;7.20;99.90;;;;;;6156152;23;20005;-77
2021/01/04 09:13:29;;;;;;;6.88;4.57;;;7.10;99.90;;;;;;6155013;23;20005;-77
2021/01/04 09:15:56;;;;;;;14.35;6.57;;;7.10;99.90;;;;;;6183056;23;19997;-77
2021/01/04 09:18:21;;;;;;;9.77;5.25;;;7.10;99.90;;;;;;6154101;23;20056;-77
2021/01/04 09:20:59;;;;;;;8.77;5.00;;;7.10;99.90;;;;;;6182634;23;20005;-77
2021/01/04 09:23:36;;;;;;;6.63;4.57;;;7.00;99.90;;;;;;6180580;23;20005;-77
2021/01/04 09:26:01;;;;;;;9.20;5.28;;;7.10;99.90;;;;;;6158101;23;20001;-77
2021/01/04 09:28:36;;;;;;;9.73;5.68;;;7.10;99.90;;;;;;6186708;23;20024;-77
2021/01/04 09:31:02;;;;;;;8.77;5.90;;;7.10;99.90;;;;;;6160339;23;20080;-77
2021/01/04 09:33:28;;;;;;;6.43;4.43;;;7.20;99.90;;;;;;6185624;23;20078;-77
2021/01/04 09:36:05;;;;;;;4.85;3.35;;;7.30;99.90;;;;;;6160073;23;20040;-77
2021/01/04 09:38:31;;;;;;;3.03;2.67;;;7.30;99.90;;;;;;6159862;23;20480;-77
2021/01/04 09:41:03;;;;;;;3.42;2.50;;;7.40;99.90;;;;;;6159910;23;20043;-77
2021/01/04 09:43:32;;;;;;;5.88;3.40;;;7.40;99.90;;;;;;6159953;23;20032;-78
2021/01/04 09:46:14;;;;;;;6.22;3.08;;;7.50;99.90;;;;;;6186170;23;20001;-78
2021/01/04 09:48:47;;;;;;;4.68;3.40;;;7.60;99.90;;;;;;6186480;23;20089;-77
2021/01/04 09:51:20;;;;;;;10.52;3.58;;;7.60;99.90;;;;;;6186127;23;20001;-77
2021/01/04 09:53:56;;;;;;;4.07;2.85;;;7.60;99.90;;;;;;6186004;23;20516;-77
2021/01/04 09:56:35;;;;;;;5.18;3.45;;;7.60;99.90;;;;;;6159763;23;20384;-78
2021/01/04 09:59:23;;;;;;;5.93;4.63;;;7.70;99.90;;;;;;6159894;23;20016;-78
2021/01/04 10:01:56;;;;;;;11.15;4.57;;;7.70;99.90;;;;;;6159691;23;20005;-77
2021/01/04 10:04:26;;;;;;;9.00;4.63;;;7.70;99.90;;;;;;6159568;23;20088;-77
2021/01/04 10:06:52;;;;;;;9.95;4.90;;;7.80;99.90;;;;;;6159842;23;20008;-77
2021/01/04 10:09:18;;;;;;;9.27;4.97;;;7.80;99.90;;;;;;6159641;23;20005;-77
2021/01/04 10:11:49;;;;;;;8.45;5.03;;;7.80;99.90;;;;;;6159594;23;20009;-77
2021/01/04 10:14:17;;;;;;;8.73;4.50;;;7.80;99.90;;;;;;6186081;23;19997;-77
2021/01/04 10:16:51;;;;;;;7.60;4.20;;;7.80;99.90;;;;;;6179268;23;20023;-78
2021/01/04 10:19:25;;;;;;;9.13;5.05;;;7.80;99.90;;;;;;6178286;23;20001;-77
2021/01/04 10:21:56;;;;;;;11.18;5.03;;;7.80;99.90;;;;;;6181070;23;20072;-76
2021/01/04 10:24:26;;;;;;;12.55;5.70;;;7.80;99.90;;;;;;6153860;23;20009;-77
2021/01/04 10:26:52;;;;;;;11.45;5.93;;;7.90;99.90;;;;;;6156783;23;20718;-77
2021/01/04 10:29:26;;;;;;;11.80;6.25;;;7.80;99.90;;;;;;6152082;23;20032;-77
2021/01/04 10:32:17;;;;;;;9.35;6.28;;;7.80;99.90;;;;;;6155082;23;20051;-77
2021/01/04 10:34:46;;;;;;;8.65;6.63;;;7.80;99.90;;;;;;6177344;23;20005;-77
2021/01/04 10:37:47;;;;;;;12.48;5.75;;;7.80;99.90;;;;;;6154557;23;20005;-77
2021/01/04 10:40:16;;;;;;;9.18;6.57;;;7.80;99.90;;;;;;6169966;23;20063;-77
2021/01/04 10:42:45;;;;;;;13.13;7.25;;;7.80;99.90;;;;;;6181732;23;20005;-78
2021/01/04 10:45:15;;;;;;;11.35;6.78;;;7.70;99.90;;;;;;6153502;23;20531;-77
2021/01/04 10:47:46;;;;;;;12.88;7.20;;;7.70;99.90;;;;;;6153096;23;20005;-80
2021/01/04 10:50:40;;;;;;;18.57;7.43;;;7.70;99.90;;;;;;6154046;23;19997;-80
2021/01/04 10:53:09;;;;;;;14.88;5.90;;;7.70;99.90;;;;;;6154273;23;20236;-80
2021/01/04 10:55:49;;;;;;;9.45;5.55;;;7.70;99.90;;;;;;6180773;23;20009;-80
2021/01/04 10:58:23;;;;;;;8.57;6.00;;;7.70;99.90;;;;;;6154216;23;20135;-80
2021/01/04 11:01:15;;;;;;;10.43;6.15;;;7.60;99.90;;;;;;6181521;23;20001;-81
2021/01/04 11:03:51;;;;;;;14.23;6.75;;;7.60;99.90;;;;;;6178750;23;20005;-80
2021/01/04 11:06:25;;;;;;;14.35;6.50;;;7.50;99.90;;;;;;6182379;23;20082;-81
2021/01/04 11:08:50;;;;;;;11.80;6.28;;;7.50;99.90;;;;;;6153052;23;20027;-80
2021/01/04 11:11:35;;;;;;;11.48;6.00;;;7.60;99.90;;;;;;6155189;23;20485;-80
2021/01/04 11:14:18;;;;;;;6.47;5.93;;;7.60;99.90;;;;;;6153195;23;20009;-80
2021/01/04 11:16:52;;;;;;;6.78;5.80;;;7.60;99.90;;;;;;6154491;23;20092;-80
2021/01/04 11:19:28;;;;;;;8.55;5.95;;;7.50;99.90;;;;;;6153685;23;20005;-81
2021/01/04 11:21:53;;;;;;;11.80;6.57;;;7.60;99.90;;;;;;6180689;23;20005;-81
2021/01/04 11:24:19;;;;;;;15.45;6.80;;;7.60;99.90;;;;;;6180164;23;20077;-80
2021/01/04 11:26:46;;;;;;;8.35;6.45;;;7.70;99.90;;;;;;6182300;23;20765;-80
2021/01/04 11:29:12;;;;;;;7.50;6.50;;;7.70;99.90;;;;;;6179599;23;20001;-81
2021/01/04 11:31:38;;;;;;;15.05;6.55;;;7.80;99.90;;;;;;6155509;23;20001;-80
2021/01/04 11:34:04;;;;;;;11.68;6.03;;;7.80;99.90;;;;;;6180126;23;20388;-81
2021/01/04 11:36:31;;;;;;;11.02;6.47;;;7.90;99.90;;;;;;6180569;23;20029;-82
2021/01/04 11:38:56;;;;;;;7.88;5.47;;;7.90;99.90;;;;;;6153625;23;20016;-81
2021/01/04 11:41:22;;;;;;;12.88;5.65;;;7.90;99.90;;;;;;6181865;23;20005;-80
2021/01/04 11:43:48;;;;;;;16.45;6.50;;;7.90;99.90;;;;;;6179146;23;20001;-80
2021/01/04 11:46:16;;;;;;;8.82;5.72;;;7.90;99.90;;;;;;6181392;23;20020;-81
2021/01/04 11:48:41;;;;;;;7.68;5.60;;;8.00;99.90;;;;;;6154156;23;20005;-81
2021/01/04 11:51:08;;;;;;;12.07;6.75;;;8.00;99.90;;;;;;6181724;23;20007;-81
2021/01/04 11:53:33;;;;;;;9.02;6.07;;;8.10;99.90;;;;;;6179469;23;20005;-81
2021/01/04 11:56:01;;;;;;;12.18;6.22;;;8.10;99.90;;;;;;6181263;23;20112;-81
2021/01/04 11:58:27;;;;;;;10.27;6.38;;;8.10;99.90;;;;;;6158096;23;20036;-80
2021/01/04 12:00:53;;;;;;;13.35;6.22;;;8.20;99.90;;;;;;6158906;23;20005;-80
2021/01/04 12:03:19;;;;;;;9.93;5.75;;;8.20;99.90;;;;;;6158634;23;20028;-82
2021/01/04 12:05:45;;;;;;;12.32;5.50;;;8.30;99.90;;;;;;6158560;23;20437;-81
2021/01/04 12:08:11;;;;;;;10.38;5.35;;;8.30;99.90;;;;;;6185089;23;20417;-81
2021/01/04 12:10:36;;;;;;;9.77;4.85;;;8.30;99.90;;;;;;6185186;23;20001;-80
2021/01/04 12:13:03;;;;;;;12.73;6.10;;;8.30;99.90;;;;;;6158893;23;20001;-80
2021/01/04 12:15:29;;;;;;;7.85;5.25;;;8.30;99.90;;;;;;6185240;23;20005;-80
2021/01/04 12:17:54;;;;;;;11.00;5.47;;;8.30;99.90;;;;;;6184949;23;20437;-80
2021/01/04 12:20:20;;;;;;;10.35;5.40;;;8.40;99.90;;;;;;6158374;23;20127;-81
2021/01/04 12:22:47;;;;;;;7.45;5.40;;;8.30;99.90;;;;;;6184826;23;20005;-81
2021/01/04 12:25:13;;;;;;;7.45;5.60;;;8.30;99.90;;;;;;6185022;23;20001;-80
2021/01/04 12:27:39;;;;;;;10.48;6.80;;;8.30;99.90;;;;;;6185249;23;20084;-81
2021/01/04 12:30:06;;;;;;;10.73;5.93;;;8.30;99.90;;;;;;6158766;23;20008;-80
2021/01/04 12:32:32;;;;;;;14.20;5.85;;;8.30;99.90;;;;;;6184919;23;20002;-80
2021/01/04 12:34:58;;;;;;;7.72;4.90;;;8.30;99.90;;;;;;6184652;23;20001;-80
2021/01/04 12:37:24;;;;;;;7.82;5.47;;;8.30;99.90;;;;;;6184979;23;20012;-81
2021/01/04 12:39:50;;;;;;;8.90;5.40;;;8.30;99.90;;;;;;6184878;23;20088;-81
2021/01/04 12:42:15;;;;;;;6.57;5.07;;;8.30;99.90;;;;;;6185072;23;20085;-80
2021/01/04 12:44:41;;;;;;;8.50;5.65;;;8.40;99.90;;;;;;6184897;23;20052;-80
2021/01/04 12:47:07;;;;;;;7.03;5.28;;;8.40;99.90;;;;;;6184957;23;20355;-81
2021/01/04 12:49:34;;;;;;;10.60;4.93;;;8.40;99.90;;;;;;6185049;23;20001;-81
2021/01/04 12:52:00;;;;;;;4.63;4.20;;;8.40;99.90;;;;;;6184607;23;20024;-81
2021/01/04 12:54:31;;;;;;;9.15;4.82;;;8.40;99.90;;;;;;6184631;23;20090;-82
2021/01/04 12:57:03;;;;;;;10.55;4.18;;;8.50;99.90;;;;;;6157817;23;20428;-80
2021/01/04 12:59:29;;;;;;;9.30;5.00;;;8.90;99.90;;;;;;6158124;23;20056;-80
2021/01/04 13:01:55;;;;;;;8.07;4.18;;;8.80;99.90;;;;;;6183446;23;20012;-80
2021/01/04 13:04:27;;;;;;;5.57;3.58;;;8.70;99.90;;;;;;6184398;23;20588;-80
2021/01/04 13:06:54;;;;;;;6.40;3.47;;;8.60;99.90;;;;;;6154605;23;20005;-80
2021/01/04 13:09:20;;;;;;;5.15;3.97;;;8.60;99.90;;;;;;6182577;23;19993;-80
2021/01/04 13:11:47;;;;;;;6.93;4.05;;;8.60;99.90;;;;;;6174862;23;20052;-77
2021/01/04 13:14:14;;;;;;;7.35;4.05;;;8.60;99.90;;;;;;6180038;23;20400;-81
2021/01/04 13:16:40;;;;;;;9.18;4.30;;;8.60;99.90;;;;;;6178778;23;20008;-80
2021/01/04 13:19:08;;;;;;;4.15;3.75;;;8.70;99.90;;;;;;6177956;23;20083;-81
2021/01/04 13:21:36;;;;;;;8.65;4.40;;;8.70;99.90;;;;;;6153804;23;20504;-80
2021/01/04 13:24:02;;;;;;;7.75;4.60;;;8.70;99.90;;;;;;6155724;23;20016;-81
2021/01/04 13:26:27;;;;;;;9.27;5.00;;;8.70;99.90;;;;;;6180597;23;20784;-80
2021/01/04 13:28:53;;;;;;;9.80;4.70;;;8.70;99.90;;;;;;6181308;23;20084;-81
2021/01/04 13:31:27;;;;;;;11.57;4.22;;;8.80;99.90;;;;;;6179934;23;20036;-80
2021/01/04 13:33:54;;;;;;;7.97;4.05;;;8.80;99.90;;;;;;6155355;23;20013;-81
2021/01/04 13:36:20;;;;;;;7.95;4.15;;;8.90;99.90;;;;;;6178077;23;20540;-81
2021/01/04 13:38:46;;;;;;;10.57;4.88;;;8.90;99.90;;;;;;6181765;23;20028;-81
2021/01/04 13:41:16;;;;;;;9.80;5.45;;;9.00;99.90;;;;;;6154377;23;20008;-80